Time,TemperatureF,DewpointF,PressureIn,WindDirection,WindDirectionDegrees,WindSpeedMPH,WindSpeedGustMPH,Humidity,HourlyPrecipIn,Conditions,Clouds,dailyrainin,SoftwareType,DateUTC
2013-02-23 00:01:00,42.0,12.0,29.91,SW,225,8.0,9.0,29,0.00,,,0.00,,2013-02-23 08:01:00,
2013-02-23 00:11:00,42.0,12.0,29.91,SW,225,8.0,9.0,29,0.00,,,0.00,,2013-02-23 08:11:00,
2013-02-23 00:21:00,42.0,12.0,29.88,WSW,248,5.0,6.0,29,0.00,,,0.00,,2013-02-23 08:21:00,
2013-02-23 00:31:00,41.0,14.0,29.88,WSW,248,5.0,7.0,33,0.00,,,0.00,,2013-02-23 08:31:00,
2013-02-23 00:41:00,41.0,14.0,29.88,WSW,248,5.0,7.0,33,0.00,,,0.00,,2013-02-23 08:41:00,
2013-02-23 00:52:00,40.0,15.0,29.88,West,270,5.0,7.0,35,0.00,,,0.00,,2013-02-23 08:52:00,
2013-02-23 01:01:00,39.0,14.0,29.88,SW,225,3.0,6.0,35,0.00,,,0.00,,2013-02-23 09:01:00,
2013-02-23 01:11:00,39.0,14.0,29.88,SW,225,3.0,6.0,35,0.00,,,0.00,,2013-02-23 09:11:00,
2013-02-23 01:21:00,39.0,14.0,29.88,SW,225,3.0,5.0,35,0.00,,,0.00,,2013-02-23 09:21:00,
2013-02-23 01:31:00,38.0,13.0,29.88,SW,225,2.0,5.0,36,0.00,,,0.00,,2013-02-23 09:31:00,
2013-02-23 01:41:00,38.0,13.0,29.88,SW,225,2.0,5.0,36,0.00,,,0.00,,2013-02-23 09:41:00,
2013-02-23 01:52:00,38.0,13.0,29.88,SW,225,0.0,2.0,36,0.00,,,0.00,,2013-02-23 09:52:00,
2013-02-23 02:01:00,38.0,14.0,29.88,SW,225,5.0,6.0,37,0.00,,,0.00,,2013-02-23 10:01:00,
2013-02-23 02:11:00,38.0,14.0,29.85,SW,225,3.0,5.0,37,0.00,,,0.00,,2013-02-23 10:11:00,
2013-02-23 02:21:00,38.0,14.0,29.85,SW,225,3.0,5.0,37,0.00,,,0.00,,2013-02-23 10:21:00,
2013-02-23 02:31:00,37.0,13.0,29.85,SW,225,3.0,3.0,37,0.00,,,0.00,,2013-02-23 10:31:00,
2013-02-23 02:41:00,37.0,13.0,29.85,SW,225,3.0,3.0,37,0.00,,,0.00,,2013-02-23 10:41:00,
2013-02-23 02:52:00,38.0,14.0,29.85,SW,225,3.0,5.0,37,0.00,,,0.00,,2013-02-23 10:52:00,
2013-02-23 03:01:00,38.0,14.0,29.82,SW,225,2.0,5.0,37,0.00,,,0.00,,2013-02-23 11:01:00,
2013-02-23 03:11:00,38.0,14.0,29.82,SW,225,2.0,5.0,37,0.00,,,0.00,,2013-02-23 11:11:00,
2013-02-23 03:21:00,37.0,14.0,29.82,SW,225,2.0,5.0,38,0.00,,,0.00,,2013-02-23 11:21:00,
2013-02-23 03:32:00,36.0,13.0,29.82,SW,225,3.0,5.0,39,0.00,,,0.00,,2013-02-23 11:32:00,
2013-02-23 03:41:00,36.0,13.0,29.82,SW,225,3.0,5.0,39,0.00,,,0.00,,2013-02-23 11:41:00,
2013-02-23 03:52:00,36.0,13.0,29.82,SW,225,3.0,5.0,39,0.00,,,0.00,,2013-02-23 11:52:00,
2013-02-23 04:01:00,36.0,14.0,29.82,SW,225,2.0,5.0,40,0.00,,,0.00,,2013-02-23 12:01:00,
2013-02-23 04:11:00,36.0,14.0,29.82,SW,225,2.0,5.0,40,0.00,,,0.00,,2013-02-23 12:11:00,
2013-02-23 04:21:00,34.0,14.0,29.82,West,270,5.0,6.0,44,0.00,,,0.00,,2013-02-23 12:21:00,
2013-02-23 04:32:00,33.0,15.0,29.82,WSW,238,3.0,6.0,46,0.00,,,0.00,,2013-02-23 12:32:00,
2013-02-23 04:41:00,33.0,15.0,29.82,WSW,238,3.0,6.0,46,0.00,,,0.00,,2013-02-23 12:41:00,
2013-02-23 04:52:00,32.0,15.0,29.82,SW,225,0.0,0.0,48,0.00,,,0.00,,2013-02-23 12:52:00,
2013-02-23 05:01:00,36.0,17.0,29.82,SW,225,3.0,5.0,46,0.00,,,0.00,,2013-02-23 13:01:00,
2013-02-23 05:11:00,38.0,17.0,29.82,SW,225,6.0,7.0,42,0.00,,,0.00,,2013-02-23 13:11:00,
2013-02-23 05:22:00,38.0,17.0,29.82,SW,225,6.0,7.0,42,0.00,,,0.00,,2013-02-23 13:22:00,
2013-02-23 05:31:00,37.0,18.0,29.82,SW,225,0.0,3.0,45,0.00,,,0.00,,2013-02-23 13:31:00,
2013-02-23 05:41:00,37.0,18.0,29.79,SW,225,3.0,5.0,45,0.00,,,0.00,,2013-02-23 13:41:00,
2013-02-23 05:51:00,37.0,18.0,29.79,SW,225,3.0,5.0,45,0.00,,,0.00,,2013-02-23 13:51:00,
2013-02-23 06:02:00,37.0,17.0,29.79,SW,225,0.0,0.0,43,0.00,,,0.00,,2013-02-23 14:02:00,
2013-02-23 06:11:00,38.0,16.0,29.79,SW,225,2.0,3.0,41,0.00,,,0.00,,2013-02-23 14:11:00,
2013-02-23 06:21:00,38.0,16.0,29.79,SW,225,2.0,3.0,41,0.00,,,0.00,,2013-02-23 14:21:00,
2013-02-23 06:32:00,37.0,16.0,29.79,SW,225,3.0,3.0,41,0.00,,,0.00,,2013-02-23 14:32:00,
2013-02-23 06:41:00,37.0,16.0,29.79,SW,225,3.0,3.0,41,0.00,,,0.00,,2013-02-23 14:41:00,
2013-02-23 06:52:00,37.0,15.0,29.79,SW,225,2.0,6.0,40,0.00,,,0.00,,2013-02-23 14:52:00,
2013-02-23 07:01:00,38.0,15.0,29.79,SW,225,1.0,5.0,39,0.00,,,0.00,,2013-02-23 15:01:00,
2013-02-23 07:11:00,38.0,15.0,29.79,SW,225,1.0,5.0,39,0.00,,,0.00,,2013-02-23 15:11:00,
2013-02-23 07:21:00,41.0,17.0,29.79,SW,225,0.0,5.0,38,0.00,,,0.00,,2013-02-23 15:21:00,
2013-02-23 07:31:00,43.0,17.0,29.79,NW,324,5.0,8.0,35,0.00,,,0.00,,2013-02-23 15:31:00,
2013-02-23 07:41:00,43.0,17.0,29.79,NW,324,5.0,8.0,35,0.00,,,0.00,,2013-02-23 15:41:00,
2013-02-23 07:52:00,45.0,18.0,29.79,SE,135,3.0,5.0,34,0.00,,,0.00,,2013-02-23 15:52:00,
2013-02-23 08:01:00,47.0,17.0,29.79,South,180,2.0,5.0,30,0.00,,,0.00,,2013-02-23 16:01:00,
2013-02-23 08:21:00,49.0,16.0,29.79,West,273,5.0,8.0,27,0.00,,,0.00,,2013-02-23 16:21:00,
2013-02-23 08:31:00,53.0,12.0,29.82,West,270,13.0,18.0,19,0.00,,,0.00,,2013-02-23 16:31:00,
2013-02-23 08:42:00,53.0,12.0,29.82,West,270,13.0,18.0,19,0.00,,,0.00,,2013-02-23 16:42:00,
2013-02-23 08:52:00,54.0,13.0,29.82,West,270,16.0,20.0,19,0.00,,,0.00,,2013-02-23 16:52:00,
2013-02-23 09:01:00,56.0,13.0,29.82,West,270,16.0,21.0,18,0.00,,,0.00,,2013-02-23 17:01:00,
2013-02-23 09:11:00,56.0,13.0,29.82,West,279,16.0,18.0,18,0.00,,,0.00,,2013-02-23 17:11:00,
2013-02-23 09:21:00,56.0,13.0,29.82,West,279,16.0,18.0,18,0.00,,,0.00,,2013-02-23 17:21:00,
2013-02-23 09:31:00,58.0,15.0,29.82,West,277,14.0,18.0,18,0.00,,,0.00,,2013-02-23 17:31:00,
2013-02-23 09:41:00,58.0,15.0,29.82,West,277,14.0,18.0,18,0.00,,,0.00,,2013-02-23 17:41:00,
2013-02-23 09:52:00,59.0,16.0,29.82,West,275,16.0,20.0,18,0.00,,,0.00,,2013-02-23 17:52:00,
2013-02-23 10:01:00,58.0,15.0,29.82,West,270,15.0,22.0,18,0.00,,,0.00,,2013-02-23 18:01:00,
2013-02-23 10:21:00,60.0,16.0,29.82,West,272,15.0,18.0,18,0.00,,,0.00,,2013-02-23 18:21:00,
2013-02-23 10:31:00,61.0,16.0,29.79,West,270,16.0,23.0,17,0.00,,,0.00,,2013-02-23 18:31:00,
2013-02-23 10:41:00,61.0,16.0,29.79,West,270,16.0,23.0,17,0.00,,,0.00,,2013-02-23 18:41:00,
2013-02-23 10:51:00,61.0,16.0,29.82,West,270,21.0,26.0,17,0.00,,,0.00,,2013-02-23 18:51:00,
2013-02-23 11:01:00,61.0,16.0,29.79,West,270,22.0,25.0,17,0.00,,,0.00,,2013-02-23 19:01:00,
2013-02-23 11:11:00,61.0,16.0,29.79,West,270,23.0,30.0,17,0.00,,,0.00,,2013-02-23 19:11:00,
2013-02-23 11:21:00,61.0,16.0,29.79,West,270,23.0,30.0,17,0.00,,,0.00,,2013-02-23 19:21:00,
2013-02-23 11:32:00,62.0,17.0,29.79,West,263,22.0,26.0,17,0.00,,,0.00,,2013-02-23 19:32:00,
2013-02-23 11:41:00,62.0,17.0,29.79,West,263,22.0,26.0,17,0.00,,,0.00,,2013-02-23 19:41:00,
2013-02-23 11:52:00,62.0,17.0,29.79,West,272,22.0,31.0,17,0.00,,,0.00,,2013-02-23 19:52:00,
2013-02-23 12:01:00,62.0,17.0,29.76,West,276,20.0,25.0,17,0.00,,,0.00,,2013-02-23 20:01:00,
2013-02-23 12:11:00,62.0,17.0,29.76,West,276,20.0,25.0,17,0.00,,,0.00,,2013-02-23 20:11:00,
2013-02-23 12:21:00,63.0,18.0,29.76,West,275,21.0,26.0,17,0.00,,,0.00,,2013-02-23 20:21:00,
2013-02-23 12:31:00,64.0,18.0,29.76,WNW,290,20.0,31.0,17,0.00,,,0.00,,2013-02-23 20:31:00,
2013-02-23 12:41:00,64.0,18.0,29.76,WNW,290,20.0,31.0,17,0.00,,,0.00,,2013-02-23 20:41:00,
2013-02-23 12:52:00,64.0,18.0,29.73,West,276,18.0,28.0,17,0.00,,,0.00,,2013-02-23 20:52:00,
2013-02-23 13:01:00,64.0,18.0,29.73,West,274,20.0,25.0,17,0.00,,,0.00,,2013-02-23 21:01:00,
2013-02-23 13:11:00,64.0,17.0,29.73,West,270,17.0,28.0,16,0.00,,,0.00,,2013-02-23 21:11:00,
2013-02-23 13:21:00,64.0,17.0,29.73,West,270,17.0,28.0,16,0.00,,,0.00,,2013-02-23 21:21:00,
2013-02-23 13:31:00,64.0,17.0,29.70,West,271,20.0,24.0,16,0.00,,,0.00,,2013-02-23 21:31:00,
2013-02-23 13:41:00,64.0,17.0,29.70,West,271,20.0,24.0,16,0.00,,,0.00,,2013-02-23 21:41:00,
2013-02-23 13:52:00,64.0,17.0,29.70,West,270,18.0,24.0,16,0.00,,,0.00,,2013-02-23 21:52:00,
2013-02-23 14:01:00,64.0,17.0,29.70,WNW,294,17.0,23.0,16,0.00,,,0.00,,2013-02-23 22:01:00,
2013-02-23 14:11:00,64.0,18.0,29.70,West,270,16.0,24.0,17,0.00,,,0.00,,2013-02-23 22:11:00,
2013-02-23 14:21:00,64.0,18.0,29.70,West,270,16.0,24.0,17,0.00,,,0.00,,2013-02-23 22:21:00,
2013-02-23 14:31:00,63.0,18.0,29.67,NW,307,17.0,28.0,17,0.00,,,0.00,,2013-02-23 22:31:00,
2013-02-23 14:41:00,63.0,18.0,29.67,NW,307,17.0,28.0,17,0.00,,,0.00,,2013-02-23 22:41:00,
2013-02-23 14:52:00,64.0,18.0,29.67,West,273,14.0,18.0,17,0.00,,,0.00,,2013-02-23 22:52:00,
2013-02-23 15:01:00,63.0,18.0,29.67,West,281,17.0,25.0,17,0.00,,,0.00,,2013-02-23 23:01:00,
2013-02-23 15:11:00,63.0,18.0,29.67,West,281,18.0,25.0,17,0.00,,,0.00,,2013-02-23 23:11:00,
2013-02-23 15:21:00,63.0,18.0,29.67,West,281,18.0,25.0,17,0.00,,,0.00,,2013-02-23 23:21:00,
2013-02-23 15:31:00,63.0,18.0,29.67,WNW,283,12.0,17.0,17,0.00,,,0.00,,2013-02-23 23:31:00,
2013-02-23 15:41:00,63.0,18.0,29.67,WNW,283,12.0,17.0,17,0.00,,,0.00,,2013-02-23 23:41:00,
2013-02-23 15:51:00,63.0,18.0,29.67,NW,304,11.0,17.0,17,0.00,,,0.00,,2013-02-23 23:51:00,
2013-02-23 16:01:00,61.0,16.0,29.67,West,270,16.0,21.0,17,0.00,,,0.00,,2013-02-24 00:01:00,
2013-02-23 16:11:00,60.0,16.0,29.67,West,275,16.0,18.0,18,0.00,,,0.00,,2013-02-24 00:11:00,
2013-02-23 16:21:00,60.0,16.0,29.67,West,275,16.0,18.0,18,0.00,,,0.00,,2013-02-24 00:21:00,
2013-02-23 16:31:00,60.0,16.0,29.67,WNW,291,10.0,15.0,18,0.00,,,0.00,,2013-02-24 00:31:00,
2013-02-23 16:42:00,60.0,16.0,29.67,WNW,291,10.0,15.0,18,0.00,,,0.00,,2013-02-24 00:42:00,
2013-02-23 16:52:00,57.0,14.0,29.70,NW,305,14.0,20.0,18,0.00,,,0.00,,2013-02-24 00:52:00,
2013-02-23 17:01:00,56.0,13.0,29.70,WNW,296,17.0,22.0,18,0.00,,,0.00,,2013-02-24 01:01:00,
2013-02-23 17:11:00,56.0,13.0,29.70,WNW,296,17.0,22.0,18,0.00,,,0.00,,2013-02-24 01:11:00,
2013-02-23 17:31:00,54.0,13.0,29.70,West,274,14.0,21.0,19,0.00,,,0.00,,2013-02-24 01:31:00,
2013-02-23 17:41:00,54.0,13.0,29.70,West,274,14.0,21.0,19,0.00,,,0.00,,2013-02-24 01:41:00,
2013-02-23 17:51:00,53.0,12.0,29.70,West,262,15.0,18.0,19,0.00,,,0.00,,2013-02-24 01:51:00,
2013-02-23 18:01:00,52.0,12.0,29.70,West,270,18.0,23.0,20,0.00,,,0.00,,2013-02-24 02:01:00,
2013-02-23 18:31:00,49.0,15.0,29.73,West,267,16.0,21.0,25,0.00,,,0.00,,2013-02-24 02:31:00,
2013-02-23 18:41:00,49.0,15.0,29.73,West,267,16.0,21.0,25,0.00,,,0.00,,2013-02-24 02:41:00,
2013-02-23 18:51:00,49.0,15.0,29.73,West,270,14.0,17.0,25,0.00,,,0.00,,2013-02-24 02:51:00,
2013-02-23 19:01:00,48.0,16.0,29.76,West,270,9.0,17.0,27,0.00,,,0.00,,2013-02-24 03:01:00,
2013-02-23 19:11:00,48.0,16.0,29.76,West,266,8.0,15.0,28,0.00,,,0.00,,2013-02-24 03:11:00,
2013-02-23 19:31:00,47.0,19.0,29.79,West,260,10.0,14.0,33,0.00,,,0.00,,2013-02-24 03:31:00,
2013-02-23 19:42:00,47.0,19.0,29.79,West,260,10.0,14.0,33,0.00,,,0.00,,2013-02-24 03:42:00,
2013-02-23 19:52:00,47.0,19.0,29.79,West,266,10.0,14.0,33,0.00,,,0.00,,2013-02-24 03:52:00,
2013-02-23 20:01:00,46.0,19.0,29.79,West,268,9.0,14.0,34,0.00,,,0.00,,2013-02-24 04:01:00,
2013-02-23 20:11:00,46.0,19.0,29.79,West,268,9.0,14.0,34,0.00,,,0.00,,2013-02-24 04:11:00,
2013-02-23 20:21:00,46.0,19.0,29.76,West,270,9.0,14.0,34,0.00,,,0.00,,2013-02-24 04:21:00,
2013-02-23 20:31:00,45.0,18.0,29.79,West,270,7.0,10.0,34,0.00,,,0.00,,2013-02-24 04:31:00,
2013-02-23 20:41:00,45.0,18.0,29.79,West,270,7.0,10.0,34,0.00,,,0.00,,2013-02-24 04:41:00,
2013-02-23 20:52:00,44.0,18.0,29.79,West,270,5.0,8.0,35,0.00,,,0.00,,2013-02-24 04:52:00,
2013-02-23 21:01:00,44.0,19.0,29.82,West,270,7.0,12.0,36,0.00,,,0.00,,2013-02-24 05:01:00,
2013-02-23 21:11:00,44.0,19.0,29.79,West,259,9.0,12.0,36,0.00,,,0.00,,2013-02-24 05:11:00,
2013-02-23 21:21:00,44.0,19.0,29.79,West,259,9.0,12.0,36,0.00,,,0.00,,2013-02-24 05:21:00,
2013-02-23 21:32:00,44.0,18.0,29.79,West,269,10.0,14.0,35,0.00,,,0.00,,2013-02-24 05:32:00,
2013-02-23 21:41:00,43.0,18.0,29.82,West,264,8.0,12.0,36,0.00,,,0.00,,2013-02-24 05:41:00,
2013-02-23 21:52:00,43.0,18.0,29.82,West,264,8.0,12.0,36,0.00,,,0.00,,2013-02-24 05:52:00,
2013-02-23 22:01:00,43.0,19.0,29.82,WSW,255,8.0,12.0,37,0.00,,,0.00,,2013-02-24 06:01:00,
2013-02-23 22:11:00,43.0,19.0,29.82,WSW,255,8.0,12.0,37,0.00,,,0.00,,2013-02-24 06:11:00,
2013-02-23 22:21:00,42.0,18.0,29.82,WSW,255,5.0,8.0,38,0.00,,,0.00,,2013-02-24 06:21:00,
2013-02-23 22:31:00,42.0,19.0,29.82,WSW,253,5.0,8.0,39,0.00,,,0.00,,2013-02-24 06:31:00,
2013-02-23 22:41:00,42.0,19.0,29.82,WSW,253,5.0,8.0,39,0.00,,,0.00,,2013-02-24 06:41:00,
2013-02-23 22:52:00,41.0,19.0,29.85,SW,225,5.0,6.0,41,0.00,,,0.00,,2013-02-24 06:52:00,
2013-02-23 23:01:00,42.0,16.0,29.85,West,270,4.0,6.0,35,0.00,,,0.00,,2013-02-24 07:01:00,
2013-02-23 23:11:00,42.0,16.0,29.85,West,270,4.0,6.0,35,0.00,,,0.00,,2013-02-24 07:11:00,
2013-02-23 23:21:00,41.0,13.0,29.85,West,270,3.0,5.0,32,0.00,,,0.00,,2013-02-24 07:21:00,
2013-02-23 23:31:00,41.0,7.0,29.85,WSW,248,0.0,0.0,24,0.00,,,0.00,,2013-02-24 07:31:00,
2013-02-23 23:41:00,41.0,7.0,29.85,WSW,248,0.0,0.0,24,0.00,,,0.00,,2013-02-24 07:41:00,
2013-02-23 23:51:00,41.0,7.0,29.85,SE,135,1.0,5.0,24,0.00,,,0.00,,2013-02-24 07:51:00,